createdAt,value
2019-05-14T00:01:54.706Z,7.20
2019-05-14T00:04:24.589Z,7.20
2019-05-14T00:06:54.483Z,7.10
2019-05-14T00:09:24.244Z,7.00
2019-05-14T00:11:54.008Z,7.00
2019-05-14T00:14:35.726Z,6.90
2019-05-14T00:16:56.090Z,6.90
2019-05-14T00:19:25.889Z,6.80
2019-05-14T00:21:55.777Z,6.70
2019-05-14T00:24:25.544Z,6.70
2019-05-14T00:26:55.414Z,6.60
2019-05-14T00:29:25.237Z,6.60
2019-05-14T00:31:55.088Z,6.50
2019-05-14T00:34:25.120Z,6.50
2019-05-14T00:37:00.917Z,6.50
2019-05-14T00:39:35.098Z,6.50
2019-05-14T00:42:05.072Z,6.50
2019-05-14T00:44:34.824Z,6.50
2019-05-14T00:47:04.656Z,6.40
2019-05-14T00:49:34.435Z,6.40
2019-05-14T00:52:04.273Z,6.40
2019-05-14T00:54:34.293Z,6.40
2019-05-14T00:57:04.169Z,6.40
2019-05-14T00:59:33.932Z,6.40
2019-05-14T01:02:03.702Z,6.40
2019-05-14T01:04:33.715Z,6.30
2019-05-14T01:07:03.596Z,6.30
2019-05-14T01:09:33.412Z,6.30
2019-05-14T01:12:03.219Z,6.30
2019-05-14T01:14:33.219Z,6.30
2019-05-14T01:17:03.033Z,6.30
2019-05-14T01:19:33.077Z,6.20
2019-05-14T01:22:02.916Z,6.20
2019-05-14T01:24:32.699Z,6.20
2019-05-14T01:27:02.462Z,6.20
2019-05-14T01:29:32.217Z,6.20
2019-05-14T01:32:02.005Z,6.20
2019-05-14T01:34:32.455Z,6.20
2019-05-14T01:37:02.660Z,6.10
2019-05-14T01:39:33.462Z,6.10
2019-05-14T01:42:03.221Z,6.10
2019-05-14T01:44:33.051Z,6.00
2019-05-14T01:47:03.160Z,6.00
2019-05-14T01:49:32.978Z,5.90
2019-05-14T01:52:02.872Z,5.80
2019-05-14T01:54:32.634Z,5.80
2019-05-14T01:57:03.158Z,5.80
2019-05-14T01:59:33.090Z,5.70
2019-05-14T02:02:02.849Z,5.70
2019-05-14T02:04:32.618Z,5.70
2019-05-14T02:07:02.515Z,5.60
2019-05-14T02:09:32.449Z,5.60
2019-05-14T02:12:02.409Z,5.50
2019-05-14T02:14:32.257Z,5.40
2019-05-14T02:17:02.192Z,5.40
2019-05-14T02:19:32.046Z,5.40
2019-05-14T02:22:02.061Z,5.40
2019-05-14T02:24:33.114Z,5.30
2019-05-14T02:27:03.046Z,5.30
2019-05-14T02:29:32.854Z,5.30
2019-05-14T02:32:02.614Z,5.20
2019-05-14T02:34:32.429Z,5.20
2019-05-14T02:37:02.226Z,5.20
2019-05-14T02:39:32.019Z,5.10
2019-05-14T02:42:01.791Z,5.10
2019-05-14T02:44:31.671Z,5.10
2019-05-14T02:47:01.470Z,5.10
2019-05-14T02:49:31.363Z,5.10
2019-05-14T02:52:01.128Z,5.10
2019-05-14T02:54:30.892Z,5.10
2019-05-14T02:57:00.693Z,5.10
2019-05-14T02:59:30.890Z,5.10
2019-05-14T03:02:00.800Z,5.10
2019-05-14T03:04:31.253Z,5.10
2019-05-14T03:07:02.153Z,5.20
2019-05-14T03:09:32.143Z,5.20
2019-05-14T03:12:01.951Z,5.20
2019-05-14T03:14:31.907Z,5.20
2019-05-14T03:17:02.031Z,5.30
2019-05-14T03:19:31.836Z,5.30
2019-05-14T03:22:01.768Z,5.30
2019-05-14T03:24:31.735Z,5.30
2019-05-14T03:27:01.568Z,5.30
2019-05-14T03:29:31.362Z,5.30
2019-05-14T03:32:03.269Z,5.30
2019-05-14T03:34:33.690Z,5.30
2019-05-14T03:37:04.417Z,5.30
2019-05-14T03:39:34.474Z,5.20
2019-05-14T03:42:04.486Z,5.20
2019-05-14T03:44:34.301Z,5.20
2019-05-14T03:47:05.581Z,5.10
2019-05-14T03:49:35.696Z,5.10
2019-05-14T03:52:05.583Z,5.10
2019-05-14T03:54:35.425Z,5.10
2019-05-14T03:57:05.264Z,5.00
2019-05-14T03:59:35.215Z,5.00
2019-05-14T04:02:05.394Z,5.00
2019-05-14T04:04:35.322Z,5.10
2019-05-14T04:07:09.673Z,5.10
2019-05-14T04:09:40.641Z,5.10
2019-05-14T04:12:12.002Z,5.20
2019-05-14T04:14:45.474Z,5.20
2019-05-14T04:17:25.950Z,5.30
2019-05-14T04:19:50.104Z,5.40
2019-05-14T04:22:23.338Z,5.40
2019-05-14T04:24:55.101Z,5.50
2019-05-14T04:27:29.890Z,5.60
2019-05-14T04:30:01.116Z,5.80
2019-05-14T04:32:31.265Z,6.10
2019-05-14T04:35:01.330Z,6.50
2019-05-14T04:37:31.198Z,7.10
2019-05-14T04:40:01.099Z,7.70
2019-05-14T04:42:30.878Z,8.30
2019-05-14T04:45:05.219Z,9.00
2019-05-14T04:47:37.237Z,9.70
2019-05-14T04:50:05.910Z,10.40
2019-05-14T04:52:35.798Z,11.10
2019-05-14T04:55:05.915Z,11.80
2019-05-14T04:57:38.893Z,12.50
2019-05-14T05:00:11.645Z,13.20
2019-05-14T05:02:39.933Z,13.90
2019-05-14T05:05:10.241Z,14.60
2019-05-14T05:07:40.621Z,15.30
2019-05-14T05:10:10.832Z,15.90
2019-05-14T05:12:40.654Z,16.50
2019-05-14T05:15:10.550Z,17.00
2019-05-14T05:17:48.073Z,17.50
2019-05-14T05:20:12.967Z,18.00
2019-05-14T05:22:42.862Z,18.50
2019-05-14T05:25:13.045Z,19.00
2019-05-14T05:27:42.954Z,19.40
2019-05-14T05:30:12.989Z,19.80
2019-05-14T05:32:43.030Z,20.30
2019-05-14T05:35:12.966Z,20.70
2019-05-14T05:37:42.805Z,21.00
2019-05-14T05:40:13.782Z,21.30
2019-05-14T05:42:43.758Z,21.60
2019-05-14T05:45:14.618Z,21.70
2019-05-14T05:47:55.291Z,21.90
2019-05-14T05:50:19.128Z,22.10
2019-05-14T05:52:49.749Z,22.20
2019-05-14T05:55:19.834Z,22.40
2019-05-14T05:57:49.663Z,22.40
2019-05-14T06:00:34.075Z,22.30
2019-05-14T06:03:04.026Z,22.20
2019-05-14T06:05:34.362Z,22.10
2019-05-14T06:08:04.309Z,22.00
2019-05-14T06:10:34.120Z,22.00
2019-05-14T06:13:04.907Z,22.00
2019-05-14T06:15:45.566Z,22.10
2019-05-14T06:18:15.198Z,22.20
2019-05-14T06:20:38.920Z,22.50
2019-05-14T06:23:08.734Z,22.70
2019-05-14T06:25:40.080Z,22.80
2019-05-14T06:28:10.041Z,23.10
2019-05-14T06:30:40.621Z,23.30
2019-05-14T06:33:10.562Z,23.50
2019-05-14T06:35:41.110Z,23.70
2019-05-14T06:38:10.938Z,23.90
2019-05-14T06:40:41.453Z,24.00
2019-05-14T06:43:11.422Z,24.20
2019-05-14T06:45:41.317Z,24.10
2019-05-14T06:48:26.393Z,24.00
2019-05-14T06:50:42.800Z,23.90
2019-05-14T06:53:12.617Z,23.80
2019-05-14T06:55:42.411Z,23.80
2019-05-14T06:58:12.338Z,23.80
2019-05-14T07:00:42.250Z,23.80
2019-05-14T07:03:12.161Z,23.90
2019-05-14T07:05:41.959Z,23.80
2019-05-14T07:08:11.835Z,23.40
2019-05-14T07:10:41.655Z,22.90
2019-05-14T07:13:11.633Z,22.40
2019-05-14T07:15:41.422Z,22.00
2019-05-14T07:18:11.278Z,21.70
2019-05-14T07:20:41.104Z,21.40
2019-05-14T07:23:11.030Z,21.20
2019-05-14T07:25:41.602Z,21.00
2019-05-14T07:28:11.982Z,20.80
2019-05-14T07:30:42.792Z,20.80
2019-05-14T07:33:13.561Z,20.90
2019-05-14T07:35:43.394Z,20.80
2019-05-14T07:38:13.289Z,20.50
2019-05-14T07:40:43.429Z,20.20
2019-05-14T07:43:13.390Z,19.90
2019-05-14T07:45:43.285Z,19.70
2019-05-14T07:48:13.914Z,19.70
2019-05-14T07:50:47.755Z,19.80
2019-05-14T07:53:17.885Z,20.00
2019-05-14T07:55:49.257Z,20.30
2019-05-14T07:58:19.563Z,20.70
2019-05-14T08:00:49.741Z,21.00
2019-05-14T08:03:20.667Z,21.20
2019-05-14T08:05:50.571Z,21.30
2019-05-14T08:08:20.465Z,21.50
2019-05-14T08:10:50.291Z,21.50
2019-05-14T08:13:20.938Z,21.60
2019-05-14T08:15:50.898Z,21.70
2019-05-14T08:18:20.989Z,21.80
2019-05-14T08:20:50.871Z,21.80
2019-05-14T08:23:20.782Z,21.80
2019-05-14T08:25:50.810Z,21.70
2019-05-14T08:28:21.298Z,21.80
2019-05-14T08:30:51.130Z,21.90
2019-05-14T08:33:20.969Z,21.90
2019-05-14T08:35:50.779Z,21.80
2019-05-14T08:38:20.601Z,21.70
2019-05-14T08:40:50.509Z,21.60
2019-05-14T08:43:20.452Z,21.50
2019-05-14T08:45:50.389Z,21.60
2019-05-14T08:48:21.253Z,21.60
2019-05-14T08:50:51.179Z,21.60
2019-05-14T08:53:21.850Z,21.40
2019-05-14T08:55:51.750Z,21.10
2019-05-14T08:58:21.641Z,20.80
2019-05-14T09:00:52.186Z,20.30
2019-05-14T09:03:21.998Z,19.80
2019-05-14T09:05:51.873Z,19.50
2019-05-14T09:08:21.859Z,19.40
2019-05-14T09:10:51.837Z,19.30
2019-05-14T09:13:21.634Z,19.40
2019-05-14T09:15:52.394Z,19.60
2019-05-14T09:18:22.217Z,19.80
2019-05-14T09:20:52.714Z,20.00
2019-05-14T09:23:22.496Z,20.10
2019-05-14T09:25:53.357Z,20.20
2019-05-14T09:28:23.815Z,20.30
2019-05-14T09:30:54.462Z,20.40
2019-05-14T09:33:24.502Z,20.50
2019-05-14T09:36:09.923Z,20.60
2019-05-14T09:38:26.126Z,20.70
2019-05-14T09:41:08.058Z,20.70
2019-05-14T09:43:28.647Z,20.70
2019-05-14T09:45:59.402Z,20.70
2019-05-14T09:48:29.312Z,20.60
2019-05-14T09:50:59.229Z,20.60
2019-05-14T09:53:29.050Z,20.60
2019-05-14T09:55:58.955Z,20.50
2019-05-14T09:58:28.849Z,20.40
2019-05-14T10:00:59.232Z,20.20
2019-05-14T10:03:29.201Z,20.00
2019-05-14T10:05:59.269Z,19.70
2019-05-14T10:08:29.166Z,19.30
2019-05-14T10:11:00.332Z,19.00
2019-05-14T10:13:30.942Z,18.60
2019-05-14T10:16:00.741Z,18.40
2019-05-14T10:18:30.697Z,18.20
2019-05-14T10:21:00.630Z,18.00
2019-05-14T10:23:31.246Z,17.80
2019-05-14T10:26:01.089Z,17.60
2019-05-14T10:28:30.942Z,17.30
2019-05-14T10:31:03.691Z,17.20
2019-05-14T10:33:32.398Z,17.00
2019-05-14T10:36:02.231Z,16.80
2019-05-14T10:38:32.146Z,16.60
2019-05-14T10:41:02.102Z,16.50
2019-05-14T10:43:31.962Z,16.50
2019-05-14T10:46:01.802Z,16.50
2019-05-14T10:48:31.634Z,16.50
2019-05-14T10:51:03.628Z,16.60
2019-05-14T10:53:32.975Z,16.70
2019-05-14T10:56:02.954Z,16.80
2019-05-14T10:58:32.770Z,16.70
2019-05-14T11:01:02.668Z,16.70
2019-05-14T11:03:32.543Z,16.80
2019-05-14T11:06:02.406Z,16.80
2019-05-14T11:08:32.950Z,16.90
2019-05-14T11:11:04.086Z,17.10
2019-05-14T11:13:34.285Z,17.20
2019-05-14T11:16:04.959Z,17.30
2019-05-14T11:18:34.786Z,17.40
2019-05-14T11:21:18.800Z,17.40
2019-05-14T11:23:38.698Z,17.40
2019-05-14T11:26:09.151Z,17.30
2019-05-14T11:28:39.610Z,17.20
2019-05-14T11:31:09.548Z,17.00
2019-05-14T11:33:39.354Z,16.90
2019-05-14T11:36:09.530Z,16.80
2019-05-14T11:38:40.083Z,16.80
2019-05-14T11:41:09.862Z,16.90
2019-05-14T11:43:40.106Z,17.10
2019-05-14T11:46:10.849Z,17.10
2019-05-14T11:48:40.670Z,17.10
2019-05-14T11:51:10.473Z,17.10
2019-05-14T11:53:40.307Z,17.00
2019-05-14T11:56:10.144Z,16.90
2019-05-14T11:58:39.938Z,16.80
2019-05-14T12:01:10.569Z,16.70
2019-05-14T12:03:40.487Z,16.60
2019-05-14T12:06:10.304Z,16.60
2019-05-14T12:08:41.816Z,16.50
2019-05-14T12:11:12.981Z,16.40
2019-05-14T12:13:42.881Z,16.30
2019-05-14T12:16:12.770Z,16.10
2019-05-14T12:18:42.698Z,16.00
2019-05-14T12:21:12.563Z,16.00
2019-05-14T12:23:42.560Z,16.00
2019-05-14T12:26:12.382Z,16.00
2019-05-14T12:28:42.323Z,16.10
2019-05-14T12:31:12.178Z,16.10
2019-05-14T12:33:41.974Z,16.30
2019-05-14T12:36:12.030Z,16.40
2019-05-14T12:38:41.845Z,16.50
2019-05-14T12:41:11.774Z,16.60
2019-05-14T12:43:43.779Z,16.60
2019-05-14T12:46:13.241Z,16.50
2019-05-14T12:48:43.141Z,16.40
2019-05-14T12:51:13.023Z,16.30
2019-05-14T12:53:43.918Z,16.20
2019-05-14T12:56:13.766Z,16.00
2019-05-14T12:58:45.957Z,16.00
2019-05-14T13:01:15.281Z,15.90
2019-05-14T13:03:45.079Z,15.90
2019-05-14T13:06:15.026Z,15.90
2019-05-14T13:08:45.548Z,15.90
2019-05-14T13:11:15.410Z,15.90
2019-05-14T13:13:45.236Z,15.90
2019-05-14T13:16:15.742Z,15.90
2019-05-14T13:18:49.559Z,15.90
2019-05-14T13:21:19.192Z,15.90
2019-05-14T13:23:50.030Z,15.80
2019-05-14T13:26:20.076Z,15.70
2019-05-14T13:28:50.999Z,15.60
2019-05-14T13:31:21.346Z,15.50
2019-05-14T13:33:51.343Z,15.40
2019-05-14T13:36:21.938Z,15.40
2019-05-14T13:38:51.819Z,15.40
2019-05-14T13:41:22.328Z,15.50
2019-05-14T13:43:52.141Z,15.60
2019-05-14T13:46:23.039Z,15.60
2019-05-14T13:48:52.934Z,15.50
2019-05-14T13:51:22.730Z,15.50
2019-05-14T13:53:52.581Z,15.40
2019-05-14T13:56:22.396Z,15.30
2019-05-14T13:58:52.266Z,15.30
2019-05-14T14:01:22.138Z,15.30
2019-05-14T14:04:06.382Z,15.30
2019-05-14T14:06:24.452Z,15.30
2019-05-14T14:08:54.345Z,15.40
2019-05-14T14:11:24.147Z,15.40
2019-05-14T14:13:54.050Z,15.40
2019-05-14T14:16:24.353Z,15.40
2019-05-14T14:18:54.230Z,15.40
2019-05-14T14:21:24.200Z,15.40
2019-05-14T14:23:54.072Z,15.40
2019-05-14T14:26:24.766Z,15.50
2019-05-14T14:28:54.645Z,15.40
2019-05-14T14:31:24.454Z,15.40
2019-05-14T14:33:54.351Z,15.40
2019-05-14T14:36:24.234Z,15.40
2019-05-14T14:38:54.051Z,15.40
2019-05-14T14:41:23.934Z,15.50
2019-05-14T14:43:55.119Z,15.50
2019-05-14T14:46:28.584Z,15.50
2019-05-14T14:49:02.180Z,15.60
2019-05-14T14:51:29.184Z,15.60
2019-05-14T14:54:07.402Z,15.60
2019-05-14T14:56:30.761Z,15.70
2019-05-14T14:59:00.611Z,15.70
2019-05-14T15:01:30.525Z,15.60
2019-05-14T15:04:00.428Z,15.60
2019-05-14T15:06:30.802Z,15.50
2019-05-14T15:09:01.046Z,15.40
2019-05-14T15:11:32.472Z,15.40
2019-05-14T15:14:03.263Z,15.40
2019-05-14T15:16:33.702Z,15.40
2019-05-14T15:19:03.543Z,15.40
2019-05-14T15:21:33.430Z,15.40
2019-05-14T15:24:13.792Z,15.40
2019-05-14T15:26:34.795Z,15.30
2019-05-14T15:29:04.757Z,15.30
2019-05-14T15:31:34.553Z,15.20
2019-05-14T15:34:04.474Z,15.10
2019-05-14T15:36:34.298Z,15.10
2019-05-14T15:39:09.472Z,15.00
2019-05-14T15:41:39.343Z,14.90
2019-05-14T15:44:09.435Z,14.80
2019-05-14T15:46:41.916Z,14.70
2019-05-14T15:49:10.897Z,14.70
2019-05-14T15:51:40.782Z,14.60
2019-05-14T15:54:34.451Z,14.60
2019-05-14T15:56:42.229Z,14.60
2019-05-14T15:59:12.142Z,14.60
2019-05-14T16:01:42.004Z,14.60
2019-05-14T16:04:11.829Z,14.60
2019-05-14T16:06:42.106Z,14.50
2019-05-14T16:09:12.002Z,14.30
2019-05-14T16:11:41.786Z,14.10
2019-05-14T16:14:11.589Z,13.80
2019-05-14T16:16:41.358Z,13.60
2019-05-14T16:19:11.249Z,13.40
2019-05-14T16:21:41.023Z,13.20
2019-05-14T16:24:10.837Z,13.00
2019-05-14T16:26:40.646Z,12.80
2019-05-14T16:29:11.120Z,12.70
2019-05-14T16:31:43.426Z,12.60
2019-05-14T16:34:12.476Z,12.40
2019-05-14T16:36:42.431Z,12.40
2019-05-14T16:39:13.034Z,12.30
2019-05-14T16:41:43.204Z,12.20
2019-05-14T16:44:13.012Z,12.20
2019-05-14T16:46:42.842Z,12.20
2019-05-14T16:49:12.663Z,12.20
2019-05-14T16:51:42.475Z,12.20
2019-05-14T16:54:12.300Z,12.20
2019-05-14T16:56:42.147Z,12.20
2019-05-14T16:59:11.970Z,12.20
2019-05-14T17:01:41.823Z,12.30
2019-05-14T17:04:11.598Z,12.30
2019-05-14T17:06:41.591Z,12.30
2019-05-14T17:09:12.122Z,12.30
2019-05-14T17:11:41.953Z,12.30
2019-05-14T17:14:11.761Z,12.30
2019-05-14T17:16:41.528Z,12.30
2019-05-14T17:19:11.423Z,12.30
2019-05-14T17:21:41.247Z,12.30
2019-05-14T17:24:11.034Z,12.30
2019-05-14T17:26:40.916Z,12.30
2019-05-14T17:29:10.809Z,12.20
2019-05-14T17:31:40.683Z,12.20
2019-05-14T17:34:10.571Z,12.20
2019-05-14T17:36:40.352Z,12.10
2019-05-14T17:39:10.305Z,12.10
2019-05-14T17:41:41.981Z,12.10
2019-05-14T17:44:11.610Z,12.00
2019-05-14T17:46:41.489Z,12.00
2019-05-14T17:49:11.272Z,11.90
2019-05-14T17:51:41.084Z,11.90
2019-05-14T17:54:10.906Z,11.90
2019-05-14T17:56:40.736Z,11.90
2019-05-14T17:59:10.518Z,11.80
2019-05-14T18:01:40.380Z,11.80
2019-05-14T18:04:10.881Z,11.70
2019-05-14T18:06:40.730Z,11.70
2019-05-14T18:09:10.613Z,11.70
2019-05-14T18:11:40.552Z,11.60
2019-05-14T18:14:11.888Z,11.60
2019-05-14T18:16:42.006Z,11.60
2019-05-14T18:19:11.970Z,11.60
2019-05-14T18:21:41.809Z,11.50
2019-05-14T18:24:11.694Z,11.50
2019-05-14T18:26:41.523Z,11.50
2019-05-14T18:29:11.335Z,11.50
2019-05-14T18:31:44.482Z,11.40
2019-05-14T18:34:12.734Z,11.40
2019-05-14T18:36:43.341Z,11.30
2019-05-14T18:39:13.345Z,11.30
2019-05-14T18:41:43.970Z,11.30
2019-05-14T18:44:14.754Z,11.20
2019-05-14T18:46:44.523Z,11.20
2019-05-14T18:49:14.289Z,11.10
2019-05-14T18:51:44.102Z,11.10
2019-05-14T18:54:13.918Z,11.00
2019-05-14T18:56:43.766Z,10.90
2019-05-14T18:59:13.679Z,10.80
2019-05-14T19:01:43.421Z,10.80
2019-05-14T19:04:13.229Z,10.70
2019-05-14T19:06:42.997Z,10.70
2019-05-14T19:09:12.865Z,10.60
2019-05-14T19:11:43.564Z,10.50
2019-05-14T19:14:13.379Z,10.40
2019-05-14T19:16:43.233Z,10.40
2019-05-14T19:19:13.034Z,10.30
2019-05-14T19:21:42.805Z,10.20
2019-05-14T19:24:12.578Z,10.10
2019-05-14T19:26:42.471Z,10.10
2019-05-14T19:29:12.279Z,10.00
2019-05-14T19:31:42.050Z,10.00
2019-05-14T19:34:11.921Z,9.90
2019-05-14T19:36:41.702Z,9.80
2019-05-14T19:39:11.514Z,9.80
2019-05-14T19:41:41.441Z,9.80
2019-05-14T19:44:11.961Z,9.70
2019-05-14T19:46:41.897Z,9.70
2019-05-14T19:49:11.657Z,9.60
2019-05-14T19:51:41.588Z,9.60
2019-05-14T19:54:11.599Z,9.60
2019-05-14T19:56:55.514Z,9.60
2019-05-14T19:59:13.317Z,9.50
2019-05-14T20:01:43.094Z,9.50
2019-05-14T20:04:12.863Z,9.40
2019-05-14T20:06:42.636Z,9.40
2019-05-14T20:09:12.397Z,9.40
2019-05-14T20:11:42.929Z,9.30
2019-05-14T20:14:12.739Z,9.20
2019-05-14T20:16:42.593Z,9.20
2019-05-14T20:19:13.172Z,9.20
2019-05-14T20:21:42.937Z,9.20
2019-05-14T20:24:12.732Z,9.10
2019-05-14T20:26:45.464Z,9.10
2019-05-14T20:29:14.063Z,9.10
2019-05-14T20:31:43.873Z,9.00
2019-05-14T20:34:13.779Z,9.00
2019-05-14T20:36:43.607Z,8.90
2019-05-14T20:39:13.390Z,8.90
2019-05-14T20:41:43.197Z,8.90
2019-05-14T20:44:13.091Z,8.90
2019-05-14T20:46:42.958Z,8.90
2019-05-14T20:49:12.770Z,8.80
2019-05-14T20:51:42.626Z,8.80
2019-05-14T20:54:13.353Z,8.80
2019-05-14T20:56:43.254Z,8.70
2019-05-14T20:59:13.069Z,8.70
2019-05-14T21:01:42.943Z,8.70
2019-05-14T21:04:12.922Z,8.60
2019-05-14T21:06:43.697Z,8.60
2019-05-14T21:09:13.489Z,8.50
2019-05-14T21:11:43.288Z,8.50
2019-05-14T21:14:13.102Z,8.50
2019-05-14T21:16:43.043Z,8.50
2019-05-14T21:19:12.800Z,8.40
2019-05-14T21:21:42.727Z,8.40
2019-05-14T21:24:12.545Z,8.40
2019-05-14T21:26:42.317Z,8.30
2019-05-14T21:29:12.212Z,8.20
2019-05-14T21:31:41.974Z,8.30
2019-05-14T21:34:11.738Z,8.20
2019-05-14T21:36:43.201Z,8.20
2019-05-14T21:39:13.032Z,8.10
2019-05-14T21:41:42.793Z,8.10
2019-05-14T21:44:12.606Z,8.00
2019-05-14T21:46:42.424Z,8.00
2019-05-14T21:49:13.070Z,8.00
2019-05-14T21:51:42.830Z,8.00
2019-05-14T21:54:12.665Z,7.90
2019-05-14T21:56:42.624Z,7.90
2019-05-14T21:59:13.482Z,7.90
2019-05-14T22:01:43.560Z,7.90
2019-05-14T22:04:13.466Z,7.80
2019-05-14T22:06:43.263Z,7.80
2019-05-14T22:09:13.213Z,7.70
2019-05-14T22:11:43.246Z,7.70
2019-05-14T22:14:13.009Z,7.60
2019-05-14T22:16:42.783Z,7.60
2019-05-14T22:19:12.595Z,7.60
2019-05-14T22:21:42.486Z,7.50
2019-05-14T22:24:12.627Z,7.50
2019-05-14T22:26:42.428Z,7.50
2019-05-14T22:29:12.229Z,7.40
2019-05-14T22:31:42.047Z,7.40
2019-05-14T22:34:11.857Z,7.40
2019-05-14T22:36:42.633Z,7.30
2019-05-14T22:39:13.236Z,7.30
2019-05-14T22:41:43.918Z,7.30
2019-05-14T22:44:14.382Z,7.20
2019-05-14T22:46:44.150Z,7.20
2019-05-14T22:49:13.973Z,7.20
2019-05-14T22:51:43.725Z,7.10
2019-05-14T22:54:13.489Z,7.10
2019-05-14T22:56:43.395Z,7.10
2019-05-14T22:59:13.198Z,7.00
2019-05-14T23:01:43.013Z,7.00
2019-05-14T23:04:12.846Z,7.00
2019-05-14T23:06:42.667Z,7.00
2019-05-14T23:09:12.551Z,7.00
2019-05-14T23:11:43.085Z,6.90
2019-05-14T23:14:12.908Z,6.90
2019-05-14T23:16:42.700Z,6.90
2019-05-14T23:19:13.311Z,6.90
2019-05-14T23:21:43.205Z,6.80
2019-05-14T23:24:13.835Z,6.80
2019-05-14T23:26:43.710Z,6.80
2019-05-14T23:29:14.165Z,6.80
2019-05-14T23:31:44.114Z,6.80
2019-05-14T23:34:14.322Z,6.70
2019-05-14T23:36:44.160Z,6.70
2019-05-14T23:39:13.913Z,6.70
2019-05-14T23:41:44.533Z,6.70
2019-05-14T23:44:14.380Z,6.60
2019-05-14T23:46:45.118Z,6.60
2019-05-14T23:49:14.902Z,6.60
2019-05-14T23:51:44.665Z,6.60
2019-05-14T23:54:14.438Z,6.60
2019-05-14T23:56:44.219Z,6.60
2019-05-14T23:59:14.030Z,6.60
